Time;durP1;ratioP1;P1;durP2;ratioP2;P2;SDS_P1;SDS_P2;PMS_P1;PMS_P2;Temp;Humidity;BMP_temperature;BMP_pressure;BME280_temperature;BME280_humidity;BME280_pressure;Samples;Min_cycle;Max_cycle;Signal;HPM_P1;HPM_P2
2023/03/01 06:34:07;;;;;;;13.73;5.68;;;-2.30;99.90;;;;;;6215039;23;20032;-93
2023/03/01 06:36:46;;;;;;;14.80;7.68;;;-2.30;99.90;;;;;;6165157;23;20517;-92
2023/03/01 07:52:14;;;;;;;10.93;5.18;;;-1.70;99.90;;;;;;6216923;23;20422;-92
2023/03/01 07:59:33;;;;;;;;;;;;;;;;;;;;;
2023/03/01 08:03:18;;;;;;;9.55;5.10;;;-1.50;99.90;;;;;;5954926;24;20391;-94
2023/03/01 08:06:21;;;;;;;9.13;4.75;;;-1.30;99.90;;;;;;5910057;24;20027;-94
2023/03/01 08:09:39;;;;;;;;;;;;;;;;;;;;;
2023/03/01 08:12:33;;;;;;;10.20;4.82;;;-1.10;99.90;;;;;;5932073;24;20108;-94
2023/03/01 09:37:55;;;;;;;26.70;12.10;;;2.10;99.90;;;;;;6220264;23;20020;-89
2023/03/01 09:40:26;;;;;;;32.08;15.68;;;2.20;99.90;;;;;;6169560;23;20025;-89
2023/03/01 09:46:57;;;;;;;28.75;13.18;;;2.40;99.90;;;;;;6223279;23;20393;-89
2023/03/01 09:49:36;;;;;;;28.70;13.10;;;2.60;99.90;;;;;;6170906;23;20020;-87
2023/03/01 09:52:21;;;;;;;26.48;12.73;;;2.60;99.90;;;;;;6220666;23;20036;-88
2023/03/01 09:54:55;;;;;;;26.90;12.18;;;2.70;99.90;;;;;;6169247;23;20027;-88
2023/03/01 09:57:47;;;;;;;26.05;12.57;;;2.80;99.90;;;;;;6170587;23;20017;-89
2023/03/01 10:56:06;;;;;;;15.00;7.70;;;5.00;99.90;;;;;;6216450;23;20017;-92
2023/03/01 10:58:33;;;;;;;14.57;7.68;;;5.20;99.90;;;;;;6165668;23;20028;-90
2023/03/01 11:01:01;;;;;;;16.17;8.13;;;5.30;99.90;;;;;;6166269;23;20019;-91
2023/03/01 11:03:35;;;;;;;18.77;8.40;;;5.30;99.90;;;;;;6166353;23;20055;-92
2023/03/01 11:06:30;;;;;;;15.07;6.93;;;5.40;99.90;;;;;;6166715;23;20017;-90
2023/03/01 11:09:16;;;;;;;16.92;8.52;;;5.50;99.90;;;;;;6167408;23;20012;-89
2023/03/01 11:11:45;;;;;;;15.73;8.23;;;5.60;99.90;;;;;;6217806;23;20023;-89
2023/03/01 11:14:28;;;;;;;13.70;7.63;;;5.70;99.90;;;;;;6166686;23;20021;-92
2023/03/01 11:17:17;;;;;;;15.40;7.65;;;5.80;99.90;;;;;;6166175;23;20099;-90
2023/03/01 11:19:59;;;;;;;15.48;7.90;;;5.80;99.90;;;;;;6167314;23;20031;-89
2023/03/01 11:36:58;;;;;;;13.98;7.22;;;6.00;99.90;;;;;;6187934;23;20096;-90
2023/03/01 11:52:04;;;;;;;15.13;6.93;;;6.30;99.90;;;;;;6214852;23;20099;-91
2023/03/01 11:54:55;;;;;;;12.15;7.03;;;6.30;99.90;;;;;;6173690;23;20091;-90
2023/03/01 11:57:55;;;;;;;16.02;7.15;;;6.40;99.90;;;;;;6171328;23;20020;-91
2023/03/01 12:01:03;;;;;;;12.90;7.18;;;6.40;99.90;;;;;;6173322;23;20012;-91
2023/03/01 12:04:16;;;;;;;13.93;7.43;;;6.40;99.90;;;;;;6149446;23;20061;-93
2023/03/01 12:06:52;;;;;;;12.98;6.32;;;6.50;99.90;;;;;;6171807;23;20020;-92
2023/03/01 12:09:54;;;;;;;12.43;5.88;;;6.50;99.90;;;;;;6171815;23;20016;-92
2023/03/01 12:12:48;;;;;;;12.00;5.32;;;6.60;99.90;;;;;;6166459;23;20075;-92
2023/03/01 12:15:31;;;;;;;10.50;5.15;;;6.60;99.90;;;;;;6172916;23;20021;-92
2023/03/01 12:23:30;;;;;;;9.18;4.75;;;6.70;99.90;;;;;;6218818;23;20330;-95
2023/03/01 12:30:46;;;;;;;;;;;;;;;;;;;;;
2023/03/01 12:34:07;;;;;;;10.60;4.80;;;6.70;99.90;;;;;;6212599;23;20048;-95
2023/03/01 15:55:39;;;;;;;17.02;8.57;;;6.90;99.90;;;;;;6222929;23;20024;-91
2023/03/01 15:58:18;;;;;;;27.27;14.33;;;6.90;99.90;;;;;;6170730;23;20024;-92
2023/03/01 16:00:46;;;;;;;12.07;5.88;;;6.90;99.90;;;;;;6173814;23;20020;-92
2023/03/01 16:03:12;;;;;;;15.35;7.18;;;6.90;99.90;;;;;;6178518;23;20017;-90
2023/03/01 16:05:38;;;;;;;12.33;6.70;;;6.90;99.90;;;;;;6167130;23;20017;-93
2023/03/01 19:08:29;;;;;;;17.90;10.55;;;3.40;99.90;;;;;;6217452;23;20405;-92
2023/03/01 19:11:00;;;;;;;15.02;7.55;;;3.40;99.90;;;;;;6166350;23;20025;-91
2023/03/01 19:13:26;;;;;;;18.73;8.82;;;3.40;99.90;;;;;;6166913;23;20019;-92
2023/03/01 19:16:19;;;;;;;23.42;10.45;;;3.40;99.90;;;;;;6168450;23;20020;-90
2023/03/01 19:18:49;;;;;;;14.32;7.50;;;3.40;99.90;;;;;;6192101;23;20687;-89
2023/03/01 19:21:24;;;;;;;25.85;12.30;;;3.40;99.90;;;;;;6166778;23;20339;-93
2023/03/01 19:23:52;;;;;;;17.15;8.20;;;3.50;99.90;;;;;;6166165;23;20059;-93
2023/03/01 19:27:02;;;;;;;20.05;9.63;;;3.50;99.90;;;;;;6166442;23;20095;-91
2023/03/01 21:49:29;;;;;;;12.25;5.20;;;3.20;99.90;;;;;;6232283;23;20024;-96
2023/03/01 21:51:54;;;;;;;12.80;5.53;;;3.20;99.90;;;;;;6144821;23;20100;-96
2023/03/01 21:54:20;;;;;;;12.37;5.47;;;3.30;99.90;;;;;;6133351;23;20008;-96
2023/03/01 21:56:47;;;;;;;10.90;5.80;;;3.30;99.90;;;;;;6148042;23;20051;-92
